sensor_id;sensor_type;location;lat;lon;timestamp;P1;durP1;ratioP1;P2;durP2;ratioP2
71773;SDS011;59607;52.130;5.430;2023-04-01T00:01:50;5.03;;;4.22;;
71773;SDS011;59607;52.130;5.430;2023-04-01T00:04:16;12.63;;;4.68;;
71773;SDS011;59607;52.130;5.430;2023-04-01T00:06:43;10.55;;;5.38;;
71773;SDS011;59607;52.130;5.430;2023-04-01T00:09:14;9.80;;;4.93;;
71773;SDS011;59607;52.130;5.430;2023-04-01T00:11:41;16.70;;;5.70;;
71773;SDS011;59607;52.130;5.430;2023-04-01T00:14:07;14.02;;;5.28;;
71773;SDS011;59607;52.130;5.430;2023-04-01T00:16:37;10.68;;;5.53;;
71773;SDS011;59607;52.130;5.430;2023-04-01T00:19:07;13.25;;;5.32;;
71773;SDS011;59607;52.130;5.430;2023-04-01T00:21:33;7.67;;;4.67;;
71773;SDS011;59607;52.130;5.430;2023-04-01T00:24:08;15.25;;;5.72;;
71773;SDS011;59607;52.130;5.430;2023-04-01T00:26:34;9.52;;;4.85;;
71773;SDS011;59607;52.130;5.430;2023-04-01T00:29:04;9.43;;;4.45;;
71773;SDS011;59607;52.130;5.430;2023-04-01T00:31:35;7.97;;;4.38;;
71773;SDS011;59607;52.130;5.430;2023-04-01T00:34:08;14.13;;;5.17;;
71773;SDS011;59607;52.130;5.430;2023-04-01T00:36:34;15.55;;;5.47;;
71773;SDS011;59607;52.130;5.430;2023-04-01T00:39:00;11.45;;;5.50;;
71773;SDS011;59607;52.130;5.430;2023-04-01T00:41:27;14.70;;;5.25;;
71773;SDS011;59607;52.130;5.430;2023-04-01T00:44:11;14.07;;;5.15;;
71773;SDS011;59607;52.130;5.430;2023-04-01T00:46:44;11.90;;;4.63;;
71773;SDS011;59607;52.130;5.430;2023-04-01T00:49:11;17.67;;;5.57;;
71773;SDS011;59607;52.130;5.430;2023-04-01T00:51:48;12.93;;;5.35;;
71773;SDS011;59607;52.130;5.430;2023-04-01T00:54:20;13.88;;;6.05;;
71773;SDS011;59607;52.130;5.430;2023-04-01T00:56:52;18.45;;;6.15;;
71773;SDS011;59607;52.130;5.430;2023-04-01T00:59:27;15.00;;;6.47;;
71773;SDS011;59607;52.130;5.430;2023-04-01T01:02:09;17.70;;;5.80;;
71773;SDS011;59607;52.130;5.430;2023-04-01T01:04:45;22.40;;;5.30;;
71773;SDS011;59607;52.130;5.430;2023-04-01T01:27:03;11.43;;;5.90;;
71773;SDS011;59607;52.130;5.430;2023-04-01T01:38:05;12.00;;;5.75;;
71773;SDS011;59607;52.130;5.430;2023-04-01T01:40:37;9.97;;;5.40;;
71773;SDS011;59607;52.130;5.430;2023-04-01T01:43:14;11.18;;;5.05;;
71773;SDS011;59607;52.130;5.430;2023-04-01T01:45:44;9.13;;;4.00;;
71773;SDS011;59607;52.130;5.430;2023-04-01T01:48:14;9.60;;;4.53;;
71773;SDS011;59607;52.130;5.430;2023-04-01T01:50:43;3.28;;;2.58;;
71773;SDS011;59607;52.130;5.430;2023-04-01T01:53:17;5.90;;;2.60;;
71773;SDS011;59607;52.130;5.430;2023-04-01T01:55:44;4.43;;;2.08;;
71773;SDS011;59607;52.130;5.430;2023-04-01T01:58:25;4.60;;;2.63;;
71773;SDS011;59607;52.130;5.430;2023-04-01T02:01:03;3.58;;;2.45;;
71773;SDS011;59607;52.130;5.430;2023-04-01T02:03:33;3.28;;;2.15;;
71773;SDS011;59607;52.130;5.430;2023-04-01T02:06:06;2.47;;;1.67;;
71773;SDS011;59607;52.130;5.430;2023-04-01T02:11:35;3.10;;;1.80;;
71773;SDS011;59607;52.130;5.430;2023-04-01T02:14:13;2.35;;;1.40;;
71773;SDS011;59607;52.130;5.430;2023-04-01T02:19:16;2.30;;;1.30;;
71773;SDS011;59607;52.130;5.430;2023-04-01T02:21:56;2.20;;;1.10;;
71773;SDS011;59607;52.130;5.430;2023-04-01T02:24:28;2.65;;;1.83;;
71773;SDS011;59607;52.130;5.430;2023-04-01T02:26:59;2.65;;;1.58;;
71773;SDS011;59607;52.130;5.430;2023-04-01T02:29:28;2.65;;;1.15;;
71773;SDS011;59607;52.130;5.430;2023-04-01T02:31:58;2.80;;;1.40;;
71773;SDS011;59607;52.130;5.430;2023-04-01T02:34:26;1.83;;;1.30;;
71773;SDS011;59607;52.130;5.430;2023-04-01T02:37:03;1.27;;;0.95;;
71773;SDS011;59607;52.130;5.430;2023-04-01T02:39:32;3.22;;;1.17;;
71773;SDS011;59607;52.130;5.430;2023-04-01T02:42:05;3.53;;;2.22;;
71773;SDS011;59607;52.130;5.430;2023-04-01T02:44:32;4.77;;;1.40;;
71773;SDS011;59607;52.130;5.430;2023-04-01T02:47:07;3.05;;;1.38;;
71773;SDS011;59607;52.130;5.430;2023-04-01T02:49:34;3.80;;;1.60;;
71773;SDS011;59607;52.130;5.430;2023-04-01T02:52:00;2.20;;;1.40;;
71773;SDS011;59607;52.130;5.430;2023-04-01T02:54:32;2.83;;;1.75;;
71773;SDS011;59607;52.130;5.430;2023-04-01T02:56:58;3.47;;;1.77;;
71773;SDS011;59607;52.130;5.430;2023-04-01T02:59:25;3.17;;;1.85;;
71773;SDS011;59607;52.130;5.430;2023-04-01T03:01:55;2.50;;;1.40;;
71773;SDS011;59607;52.130;5.430;2023-04-01T03:04:21;3.55;;;1.55;;
71773;SDS011;59607;52.130;5.430;2023-04-01T03:06:48;2.63;;;1.60;;
71773;SDS011;59607;52.130;5.430;2023-04-01T03:09:19;7.77;;;1.70;;
71773;SDS011;59607;52.130;5.430;2023-04-01T03:11:45;2.22;;;1.52;;
71773;SDS011;59607;52.130;5.430;2023-04-01T03:14:12;3.78;;;1.60;;
71773;SDS011;59607;52.130;5.430;2023-04-01T03:16:43;1.92;;;1.40;;
71773;SDS011;59607;52.130;5.430;2023-04-01T03:19:09;2.55;;;1.25;;
71773;SDS011;59607;52.130;5.430;2023-04-01T03:21:42;1.73;;;0.97;;
71773;SDS011;59607;52.130;5.430;2023-04-01T03:24:12;3.50;;;1.40;;
71773;SDS011;59607;52.130;5.430;2023-04-01T03:26:38;2.47;;;1.05;;
71773;SDS011;59607;52.130;5.430;2023-04-01T03:29:25;2.40;;;1.08;;
71773;SDS011;59607;52.130;5.430;2023-04-01T03:31:52;1.92;;;1.00;;
71773;SDS011;59607;52.130;5.430;2023-04-01T03:34:18;2.30;;;1.20;;
71773;SDS011;59607;52.130;5.430;2023-04-01T03:36:44;3.35;;;1.52;;
71773;SDS011;59607;52.130;5.430;2023-04-01T03:39:17;2.15;;;1.23;;
71773;SDS011;59607;52.130;5.430;2023-04-01T03:41:45;2.90;;;1.30;;
71773;SDS011;59607;52.130;5.430;2023-04-01T03:44:14;3.47;;;1.98;;
71773;SDS011;59607;52.130;5.430;2023-04-01T03:46:41;3.40;;;2.27;;
71773;SDS011;59607;52.130;5.430;2023-04-01T03:49:10;2.45;;;1.98;;
71773;SDS011;59607;52.130;5.430;2023-04-01T03:51:43;3.55;;;3.05;;
71773;SDS011;59607;52.130;5.430;2023-04-01T03:54:10;3.38;;;3.08;;
71773;SDS011;59607;52.130;5.430;2023-04-01T03:56:37;5.10;;;4.00;;
71773;SDS011;59607;52.130;5.430;2023-04-01T03:59:09;7.13;;;4.27;;
71773;SDS011;59607;52.130;5.430;2023-04-01T04:01:35;4.97;;;4.40;;
71773;SDS011;59607;52.130;5.430;2023-04-01T04:04:05;5.35;;;3.72;;
71773;SDS011;59607;52.130;5.430;2023-04-01T04:06:32;9.38;;;4.93;;
71773;SDS011;59607;52.130;5.430;2023-04-01T04:08:59;4.88;;;4.38;;
71773;SDS011;59607;52.130;5.430;2023-04-01T04:11:25;6.43;;;4.57;;
71773;SDS011;59607;52.130;5.430;2023-04-01T04:13:57;5.00;;;3.90;;
71773;SDS011;59607;52.130;5.430;2023-04-01T04:16:24;5.68;;;4.38;;
71773;SDS011;59607;52.130;5.430;2023-04-01T04:19:06;6.57;;;4.90;;
71773;SDS011;59607;52.130;5.430;2023-04-01T04:21:41;5.13;;;4.63;;
71773;SDS011;59607;52.130;5.430;2023-04-01T04:24:08;4.83;;;4.33;;
71773;SDS011;59607;52.130;5.430;2023-04-01T04:26:38;5.38;;;4.15;;
71773;SDS011;59607;52.130;5.430;2023-04-01T04:29:04;5.72;;;4.22;;
71773;SDS011;59607;52.130;5.430;2023-04-01T04:31:30;5.75;;;3.90;;
71773;SDS011;59607;52.130;5.430;2023-04-01T04:33:58;4.82;;;3.80;;
71773;SDS011;59607;52.130;5.430;2023-04-01T04:36:30;3.83;;;3.40;;
71773;SDS011;59607;52.130;5.430;2023-04-01T04:38:57;4.10;;;3.58;;
71773;SDS011;59607;52.130;5.430;2023-04-01T04:41:24;3.63;;;3.28;;
71773;SDS011;59607;52.130;5.430;2023-04-01T04:43:55;5.55;;;3.28;;
71773;SDS011;59607;52.130;5.430;2023-04-01T04:46:22;3.17;;;2.88;;
71773;SDS011;59607;52.130;5.430;2023-04-01T04:48:56;3.70;;;3.07;;
71773;SDS011;59607;52.130;5.430;2023-04-01T04:51:22;4.13;;;3.13;;
71773;SDS011;59607;52.130;5.430;2023-04-01T04:53:55;5.97;;;2.95;;
71773;SDS011;59607;52.130;5.430;2023-04-01T04:56:23;5.20;;;3.40;;
71773;SDS011;59607;52.130;5.430;2023-04-01T04:58:52;3.90;;;3.50;;
71773;SDS011;59607;52.130;5.430;2023-04-01T05:01:22;4.17;;;3.10;;
71773;SDS011;59607;52.130;5.430;2023-04-01T05:03:49;3.75;;;2.70;;
71773;SDS011;59607;52.130;5.430;2023-04-01T05:06:16;4.35;;;3.33;;
71773;SDS011;59607;52.130;5.430;2023-04-01T05:08:55;3.30;;;2.70;;
71773;SDS011;59607;52.130;5.430;2023-04-01T05:11:23;3.33;;;2.67;;
71773;SDS011;59607;52.130;5.430;2023-04-01T05:13:49;2.47;;;2.20;;
71773;SDS011;59607;52.130;5.430;2023-04-01T05:16:17;3.25;;;2.83;;
71773;SDS011;59607;52.130;5.430;2023-04-01T05:18:48;5.30;;;2.92;;
71773;SDS011;59607;52.130;5.430;2023-04-01T05:21:18;3.72;;;2.92;;
71773;SDS011;59607;52.130;5.430;2023-04-01T05:23:51;3.80;;;3.25;;
71773;SDS011;59607;52.130;5.430;2023-04-01T05:26:22;3.50;;;3.20;;
71773;SDS011;59607;52.130;5.430;2023-04-01T05:28:48;3.60;;;3.30;;
71773;SDS011;59607;52.130;5.430;2023-04-01T05:31:15;3.85;;;3.55;;
71773;SDS011;59607;52.130;5.430;2023-04-01T05:33:41;3.53;;;3.10;;
71773;SDS011;59607;52.130;5.430;2023-04-01T05:36:12;3.83;;;3.42;;
71773;SDS011;59607;52.130;5.430;2023-04-01T05:38:44;3.63;;;3.33;;
71773;SDS011;59607;52.130;5.430;2023-04-01T05:41:12;3.35;;;3.05;;
71773;SDS011;59607;52.130;5.430;2023-04-01T05:43:49;3.53;;;2.90;;
71773;SDS011;59607;52.130;5.430;2023-04-01T05:46:15;3.63;;;3.25;;
71773;SDS011;59607;52.130;5.430;2023-04-01T05:48:45;3.60;;;3.20;;
71773;SDS011;59607;52.130;5.430;2023-04-01T05:51:14;3.07;;;2.50;;
71773;SDS011;59607;52.130;5.430;2023-04-01T05:53:41;2.53;;;2.33;;
71773;SDS011;59607;52.130;5.430;2023-04-01T05:56:22;2.50;;;1.83;;
71773;SDS011;59607;52.130;5.430;2023-04-01T05:58:53;2.40;;;2.20;;
71773;SDS011;59607;52.130;5.430;2023-04-01T06:01:21;3.28;;;1.90;;
71773;SDS011;59607;52.130;5.430;2023-04-01T06:03:54;2.03;;;1.80;;
71773;SDS011;59607;52.130;5.430;2023-04-01T06:06:26;2.05;;;1.63;;
71773;SDS011;59607;52.130;5.430;2023-04-01T06:09:06;2.90;;;1.83;;
71773;SDS011;59607;52.130;5.430;2023-04-01T06:28:44;2.38;;;1.75;;
71773;SDS011;59607;52.130;5.430;2023-04-01T06:34:14;2.58;;;1.58;;
71773;SDS011;59607;52.130;5.430;2023-04-01T06:36:53;2.10;;;1.88;;
71773;SDS011;59607;52.130;5.430;2023-04-01T06:39:38;2.60;;;1.90;;
71773;SDS011;59607;52.130;5.430;2023-04-01T06:45:14;3.00;;;2.07;;
71773;SDS011;59607;52.130;5.430;2023-04-01T06:50:30;1.90;;;1.70;;
71773;SDS011;59607;52.130;5.430;2023-04-01T06:53:30;2.10;;;1.80;;
71773;SDS011;59607;52.130;5.430;2023-04-01T06:56:11;1.80;;;1.33;;
71773;SDS011;59607;52.130;5.430;2023-04-01T06:58:50;2.30;;;1.60;;
71773;SDS011;59607;52.130;5.430;2023-04-01T07:01:28;1.50;;;0.98;;
71773;SDS011;59607;52.130;5.430;2023-04-01T07:07:05;1.98;;;1.10;;
71773;SDS011;59607;52.130;5.430;2023-04-01T07:09:41;3.80;;;1.05;;
71773;SDS011;59607;52.130;5.430;2023-04-01T07:12:43;1.60;;;0.70;;
71773;SDS011;59607;52.130;5.430;2023-04-01T07:15:20;1.50;;;1.13;;
71773;SDS011;59607;52.130;5.430;2023-04-01T07:17:52;1.90;;;1.35;;
71773;SDS011;59607;52.130;5.430;2023-04-01T07:20:42;1.98;;;1.38;;
71773;SDS011;59607;52.130;5.430;2023-04-01T07:23:16;1.85;;;1.42;;
71773;SDS011;59607;52.130;5.430;2023-04-01T07:26:05;2.70;;;1.70;;
71773;SDS011;59607;52.130;5.430;2023-04-01T07:28:40;2.13;;;1.58;;
71773;SDS011;59607;52.130;5.430;2023-04-01T07:34:09;2.35;;;1.80;;
71773;SDS011;59607;52.130;5.430;2023-04-01T07:42:44;2.88;;;2.55;;
71773;SDS011;59607;52.130;5.430;2023-04-01T07:51:24;2.53;;;2.22;;
71773;SDS011;59607;52.130;5.430;2023-04-01T07:54:08;2.70;;;2.50;;
71773;SDS011;59607;52.130;5.430;2023-04-01T07:56:55;2.92;;;2.53;;
71773;SDS011;59607;52.130;5.430;2023-04-01T07:59:50;2.90;;;2.60;;
71773;SDS011;59607;52.130;5.430;2023-04-01T08:02:55;2.53;;;2.33;;
71773;SDS011;59607;52.130;5.430;2023-04-01T08:05:28;2.72;;;2.53;;
71773;SDS011;59607;52.130;5.430;2023-04-01T08:08:16;3.53;;;2.50;;
71773;SDS011;59607;52.130;5.430;2023-04-01T08:11:06;3.08;;;2.78;;
71773;SDS011;59607;52.130;5.430;2023-04-01T08:13:50;3.92;;;3.33;;
71773;SDS011;59607;52.130;5.430;2023-04-01T08:22:41;2.83;;;2.60;;
71773;SDS011;59607;52.130;5.430;2023-04-01T08:25:10;3.30;;;2.92;;
71773;SDS011;59607;52.130;5.430;2023-04-01T08:27:45;4.35;;;2.30;;
71773;SDS011;59607;52.130;5.430;2023-04-01T08:30:19;4.30;;;3.05;;
71773;SDS011;59607;52.130;5.430;2023-04-01T08:32:59;3.67;;;3.00;;
71773;SDS011;59607;52.130;5.430;2023-04-01T08:39:13;4.47;;;2.88;;
71773;SDS011;59607;52.130;5.430;2023-04-01T08:53:33;3.95;;;3.55;;
71773;SDS011;59607;52.130;5.430;2023-04-01T09:05:46;3.50;;;3.20;;
71773;SDS011;59607;52.130;5.430;2023-04-01T09:11:13;3.60;;;3.30;;
71773;SDS011;59607;52.130;5.430;2023-04-01T09:32:03;2.80;;;2.50;;
71773;SDS011;59607;52.130;5.430;2023-04-01T09:35:20;2.80;;;2.47;;
71773;SDS011;59607;52.130;5.430;2023-04-01T09:43:27;5.40;;;3.35;;
71773;SDS011;59607;52.130;5.430;2023-04-01T09:46:09;3.42;;;3.13;;
71773;SDS011;59607;52.130;5.430;2023-04-01T09:54:11;3.60;;;3.30;;
71773;SDS011;59607;52.130;5.430;2023-04-01T10:23:27;3.42;;;3.13;;
71773;SDS011;59607;52.130;5.430;2023-04-01T10:26:17;2.70;;;2.50;;
71773;SDS011;59607;52.130;5.430;2023-04-01T10:29:31;3.35;;;3.05;;
71773;SDS011;59607;52.130;5.430;2023-04-01T10:40:58;4.30;;;2.92;;
71773;SDS011;59607;52.130;5.430;2023-04-01T10:47:08;3.30;;;3.00;;
71773;SDS011;59607;52.130;5.430;2023-04-01T10:59:11;2.70;;;2.25;;
71773;SDS011;59607;52.130;5.430;2023-04-01T11:20:27;1.40;;;1.15;;
71773;SDS011;59607;52.130;5.430;2023-04-01T11:22:40;2.15;;;1.55;;
71773;SDS011;59607;52.130;5.430;2023-04-01T11:25:22;1.35;;;0.80;;
71773;SDS011;59607;52.130;5.430;2023-04-01T11:31:25;1.47;;;0.93;;
71773;SDS011;59607;52.130;5.430;2023-04-01T11:42:57;0.55;;;0.50;;
71773;SDS011;59607;52.130;5.430;2023-04-01T12:03:43;0.85;;;0.50;;
71773;SDS011;59607;52.130;5.430;2023-04-01T12:06:27;1.20;;;0.60;;
71773;SDS011;59607;52.130;5.430;2023-04-01T12:09:29;1.10;;;0.80;;
71773;SDS011;59607;52.130;5.430;2023-04-01T12:12:37;1.25;;;0.80;;
71773;SDS011;59607;52.130;5.430;2023-04-01T12:20:56;1.83;;;1.55;;
71773;SDS011;59607;52.130;5.430;2023-04-01T12:29:48;2.73;;;2.43;;
71773;SDS011;59607;52.130;5.430;2023-04-01T12:32:46;3.50;;;3.20;;
71773;SDS011;59607;52.130;5.430;2023-04-01T12:44:12;4.60;;;4.20;;
71773;SDS011;59607;52.130;5.430;2023-04-01T12:52:42;5.30;;;4.80;;
71773;SDS011;59607;52.130;5.430;2023-04-01T12:55:27;5.57;;;5.05;;
71773;SDS011;59607;52.130;5.430;2023-04-01T13:01:01;6.35;;;5.03;;
71773;SDS011;59607;52.130;5.430;2023-04-01T13:07:13;5.50;;;5.00;;
71773;SDS011;59607;52.130;5.430;2023-04-01T13:09:52;5.88;;;5.07;;
71773;SDS011;59607;52.130;5.430;2023-04-01T13:15:52;4.13;;;3.72;;
71773;SDS011;59607;52.130;5.430;2023-04-01T13:24:37;4.05;;;2.70;;
71773;SDS011;59607;52.130;5.430;2023-04-01T13:44:11;2.40;;;2.10;;
71773;SDS011;59607;52.130;5.430;2023-04-01T13:52:56;1.98;;;1.63;;
71773;SDS011;59607;52.130;5.430;2023-04-01T14:07:46;2.20;;;2.00;;
71773;SDS011;59607;52.130;5.430;2023-04-01T14:22:22;2.67;;;2.47;;
71773;SDS011;59607;52.130;5.430;2023-04-01T14:30:41;4.85;;;3.72;;
71773;SDS011;59607;52.130;5.430;2023-04-01T14:33:19;4.13;;;3.63;;
71773;SDS011;59607;52.130;5.430;2023-04-01T14:45:12;2.63;;;2.42;;
71773;SDS011;59607;52.130;5.430;2023-04-01T14:51:21;2.80;;;2.47;;
71773;SDS011;59607;52.130;5.430;2023-04-01T14:54:13;2.73;;;2.23;;
71773;SDS011;59607;52.130;5.430;2023-04-01T14:56:50;2.58;;;2.30;;
71773;SDS011;59607;52.130;5.430;2023-04-01T14:59:30;2.85;;;2.65;;
71773;SDS011;59607;52.130;5.430;2023-04-01T15:07:47;3.03;;;2.63;;
71773;SDS011;59607;52.130;5.430;2023-04-01T15:10:24;13.70;;;3.00;;
71773;SDS011;59607;52.130;5.430;2023-04-01T15:12:57;4.63;;;2.70;;
71773;SDS011;59607;52.130;5.430;2023-04-01T15:21:39;2.67;;;2.47;;
71773;SDS011;59607;52.130;5.430;2023-04-01T15:30:17;2.40;;;2.20;;
71773;SDS011;59607;52.130;5.430;2023-04-01T15:33:05;1.88;;;1.70;;
71773;SDS011;59607;52.130;5.430;2023-04-01T15:39:01;2.03;;;1.50;;
71773;SDS011;59607;52.130;5.430;2023-04-01T16:00:18;7.45;;;2.75;;
71773;SDS011;59607;52.130;5.430;2023-04-01T16:11:43;1.80;;;1.35;;
71773;SDS011;59607;52.130;5.430;2023-04-01T16:19:56;2.30;;;1.73;;
71773;SDS011;59607;52.130;5.430;2023-04-01T16:25:52;2.55;;;2.25;;
71773;SDS011;59607;52.130;5.430;2023-04-01T16:31:13;4.10;;;2.88;;
71773;SDS011;59607;52.130;5.430;2023-04-01T16:33:57;2.70;;;2.50;;
71773;SDS011;59607;52.130;5.430;2023-04-01T16:36:59;2.67;;;2.47;;
71773;SDS011;59607;52.130;5.430;2023-04-01T16:39:43;3.20;;;2.03;;
71773;SDS011;59607;52.130;5.430;2023-04-01T16:45:24;1.98;;;1.83;;
71773;SDS011;59607;52.130;5.430;2023-04-01T16:48:14;2.13;;;1.83;;
71773;SDS011;59607;52.130;5.430;2023-04-01T16:51:06;1.95;;;1.73;;
71773;SDS011;59607;52.130;5.430;2023-04-01T16:53:41;4.53;;;4.18;;
71773;SDS011;59607;52.130;5.430;2023-04-01T16:56:22;2.92;;;2.08;;
71773;SDS011;59607;52.130;5.430;2023-04-01T17:04:38;1.98;;;1.75;;
71773;SDS011;59607;52.130;5.430;2023-04-01T17:12:45;2.03;;;1.90;;
71773;SDS011;59607;52.130;5.430;2023-04-01T17:15:31;1.60;;;1.47;;
71773;SDS011;59607;52.130;5.430;2023-04-01T17:21:20;2.60;;;2.20;;
71773;SDS011;59607;52.130;5.430;2023-04-01T17:23:52;2.35;;;2.15;;
71773;SDS011;59607;52.130;5.430;2023-04-01T17:26:31;2.92;;;1.60;;
71773;SDS011;59607;52.130;5.430;2023-04-01T17:43:25;2.03;;;1.87;;
71773;SDS011;59607;52.130;5.430;2023-04-01T17:48:50;2.20;;;2.00;;
71773;SDS011;59607;52.130;5.430;2023-04-01T17:57:30;1.30;;;1.13;;
71773;SDS011;59607;52.130;5.430;2023-04-01T18:00:33;2.20;;;2.00;;
71773;SDS011;59607;52.130;5.430;2023-04-01T18:03:37;1.88;;;1.50;;
71773;SDS011;59607;52.130;5.430;2023-04-01T18:06:34;2.75;;;2.42;;
71773;SDS011;59607;52.130;5.430;2023-04-01T18:09:18;2.78;;;1.95;;
71773;SDS011;59607;52.130;5.430;2023-04-01T18:12:16;2.60;;;2.40;;
71773;SDS011;59607;52.130;5.430;2023-04-01T18:15:12;2.10;;;1.90;;
71773;SDS011;59607;52.130;5.430;2023-04-01T18:21:09;3.50;;;2.85;;
71773;SDS011;59607;52.130;5.430;2023-04-01T18:23:51;2.63;;;2.42;;
71773;SDS011;59607;52.130;5.430;2023-04-01T18:26:34;2.07;;;1.87;;
71773;SDS011;59607;52.130;5.430;2023-04-01T18:31:49;3.45;;;2.70;;
71773;SDS011;59607;52.130;5.430;2023-04-01T18:34:43;4.40;;;3.85;;
71773;SDS011;59607;52.130;5.430;2023-04-01T18:37:37;3.88;;;2.35;;
71773;SDS011;59607;52.130;5.430;2023-04-01T18:40:25;2.47;;;2.27;;
71773;SDS011;59607;52.130;5.430;2023-04-01T18:46:05;3.75;;;3.20;;
71773;SDS011;59607;52.130;5.430;2023-04-01T18:52:09;2.15;;;1.90;;
71773;SDS011;59607;52.130;5.430;2023-04-01T18:57:51;3.75;;;2.80;;
71773;SDS011;59607;52.130;5.430;2023-04-01T19:00:25;3.42;;;2.97;;
71773;SDS011;59607;52.130;5.430;2023-04-01T19:05:42;2.95;;;2.75;;
71773;SDS011;59607;52.130;5.430;2023-04-01T19:08:30;1.97;;;1.83;;
71773;SDS011;59607;52.130;5.430;2023-04-01T19:31:35;6.60;;;3.22;;
71773;SDS011;59607;52.130;5.430;2023-04-01T19:43:34;2.95;;;2.38;;
71773;SDS011;59607;52.130;5.430;2023-04-01T19:46:23;3.85;;;2.63;;
71773;SDS011;59607;52.130;5.430;2023-04-01T19:51:57;3.67;;;3.20;;
71773;SDS011;59607;52.130;5.430;2023-04-01T20:00:44;4.40;;;3.60;;
71773;SDS011;59607;52.130;5.430;2023-04-01T20:03:20;19.23;;;7.55;;
71773;SDS011;59607;52.130;5.430;2023-04-01T20:05:57;5.43;;;4.17;;
71773;SDS011;59607;52.130;5.430;2023-04-01T20:20:01;4.73;;;4.23;;
71773;SDS011;59607;52.130;5.430;2023-04-01T20:25:49;9.35;;;5.75;;
71773;SDS011;59607;52.130;5.430;2023-04-01T20:28:32;3.95;;;3.47;;
71773;SDS011;59607;52.130;5.430;2023-04-01T20:31:28;11.10;;;4.70;;
71773;SDS011;59607;52.130;5.430;2023-04-01T20:51:53;4.43;;;4.10;;
71773;SDS011;59607;52.130;5.430;2023-04-01T21:00:13;4.47;;;4.13;;
71773;SDS011;59607;52.130;5.430;2023-04-01T21:09:12;8.27;;;5.45;;
71773;SDS011;59607;52.130;5.430;2023-04-01T21:42:42;5.15;;;3.95;;
71773;SDS011;59607;52.130;5.430;2023-04-01T21:45:18;4.88;;;3.97;;
71773;SDS011;59607;52.130;5.430;2023-04-01T21:59:34;4.60;;;4.18;;
71773;SDS011;59607;52.130;5.430;2023-04-01T22:05:22;3.33;;;3.08;;
71773;SDS011;59607;52.130;5.430;2023-04-01T22:08:31;3.80;;;3.50;;
71773;SDS011;59607;52.130;5.430;2023-04-01T22:13:39;3.58;;;3.28;;
71773;SDS011;59607;52.130;5.430;2023-04-01T22:16:35;4.03;;;3.43;;
71773;SDS011;59607;52.130;5.430;2023-04-01T22:19:53;3.30;;;3.00;;
71773;SDS011;59607;52.130;5.430;2023-04-01T22:25:37;3.60;;;2.95;;
71773;SDS011;59607;52.130;5.430;2023-04-01T22:31:42;5.13;;;3.17;;
71773;SDS011;59607;52.130;5.430;2023-04-01T22:37:30;9.25;;;5.43;;
71773;SDS011;59607;52.130;5.430;2023-04-01T22:40:23;5.43;;;3.95;;
71773;SDS011;59607;52.130;5.430;2023-04-01T22:43:07;6.00;;;4.60;;
71773;SDS011;59607;52.130;5.430;2023-04-01T22:48:32;3.80;;;3.50;;
71773;SDS011;59607;52.130;5.430;2023-04-01T22:51:47;4.47;;;4.07;;
71773;SDS011;59607;52.130;5.430;2023-04-01T22:54:28;4.65;;;4.25;;
71773;SDS011;59607;52.130;5.430;2023-04-01T23:00:01;6.10;;;4.37;;
71773;SDS011;59607;52.130;5.430;2023-04-01T23:03:00;5.25;;;3.95;;
71773;SDS011;59607;52.130;5.430;2023-04-01T23:05:36;5.63;;;4.90;;
71773;SDS011;59607;52.130;5.430;2023-04-01T23:11:23;4.97;;;4.43;;
71773;SDS011;59607;52.130;5.430;2023-04-01T23:16:57;5.20;;;4.38;;
71773;SDS011;59607;52.130;5.430;2023-04-01T23:25:14;4.60;;;4.15;;
71773;SDS011;59607;52.130;5.430;2023-04-01T23:31:00;5.50;;;4.32;;
71773;SDS011;59607;52.130;5.430;2023-04-01T23:33:28;7.30;;;4.97;;
71773;SDS011;59607;52.130;5.430;2023-04-01T23:36:11;6.63;;;5.10;;
71773;SDS011;59607;52.130;5.430;2023-04-01T23:38:41;7.22;;;5.00;;
71773;SDS011;59607;52.130;5.430;2023-04-01T23:41:19;7.73;;;4.60;;
71773;SDS011;59607;52.130;5.430;2023-04-01T23:44:01;6.35;;;4.47;;
71773;SDS011;59607;52.130;5.430;2023-04-01T23:46:30;9.23;;;5.18;;
71773;SDS011;59607;52.130;5.430;2023-04-01T23:49:02;6.80;;;5.45;;
71773;SDS011;59607;52.130;5.430;2023-04-01T23:51:37;6.40;;;5.60;;
71773;SDS011;59607;52.130;5.430;2023-04-01T23:54:11;8.67;;;5.77;;
71773;SDS011;59607;52.130;5.430;2023-04-01T23:56:48;6.20;;;5.00;;
71773;SDS011;59607;52.130;5.430;2023-04-01T23:59:23;10.90;;;6.43;;
